Ingram, TX

6:49 PM CST on March 06, 2015 (GMT -0600)
Kerrville Municipal-Schreiner | Change Station
CLOSE
Current Station
Airport
Location: Kerrville,
Elevation: 1617 ft
Nearby Weather Stations

Elev 1617 ft 29.98 °N, 99.09 °W | Updated 14 minutes ago

Clear
Clear
51 °F
Feels Like 51 °F
N
5
Wind Variable Wind from South

Today
High -- | Low -- °F
--% Chance of Precip.
Yesterday
High -- | Low -- °F
Precip. -- in
6:57 AM 6:39 PM
Full, 99% visible
Pressure 30.42 in
Visibility 10.0 miles
Clouds Scattered Clouds 7000 ft
Dew Point 27 °F
Humidity 40%
Rainfall 0.00 in
Snow Depth Not available.
UV 0 out of 12
Pollen 7.70 out of 12
Air Quality Not available.
Flu Activity Not available.
METAR KERV 070035Z AUTO 17004KT 10SM SCT070 11/M03 A3042 RMK AO2 T01061026

More Conditions Fewer Conditions

Pressure 30.42 in
Visibility 10.0 miles
Clouds Scattered Clouds 7000 ft
Dew Point 27 °F
Humidity 40%
Rainfall 0.00 in
Snow Depth Not available.
UV 0 out of 12
Pollen 7.70 out of 12
Air Quality Not available.
Flu Activity Not available.
METAR KERV 070035Z AUTO 17004KT 10SM SCT070 11/M03 A3042 RMK AO2 T01061026

More Conditions Fewer Conditions

10-Day Weather Forecast

Almanac

Astronomy

Mar. 06, 2015 Rise Set
Actual Time
Civil Twilight
Nautical Twilight
Astronomical Twilight
Moon
Length of Visible Light
Length of Day
Tomorrow will be .
, % of the Moon is Illuminated

Today's Extremes

State Highs State Lows

Community

WunderPhotos

Upload Photos

1,803,469 photos uploaded!

WunderBlogs® & News

Nearby

Air Quality

  Air Quality AQ Index Pollutant
Not available.

Snow Depth

Station Depth Elevation

Earthquake Activity

City Distance Mag. Time & Date
Minimum magnitude displayed is 2.5.

Coastal Water Temperatures

Place Temperature

Nearby Weather Stations